Time;durP1;ratioP1;P1;durP2;ratioP2;P2;SDS_P1;SDS_P2;PMS_P1;PMS_P2;Temp;Humidity;BMP_temperature;BMP_pressure;BME280_temperature;BME280_humidity;BME280_pressure;Samples;Min_cycle;Max_cycle;Signal;HPM_P1;HPM_P2
2021/08/13 00:00:34;;;;;;;1.13;1.00;;;;;;;19.97;61.72;99225.28;5013895;28;38908;-82
2021/08/13 00:03:02;;;;;;;1.60;0.80;;;;;;;19.94;62.22;99222.88;5030839;28;42353;-83
2021/08/13 00:05:30;;;;;;;1.10;1.10;;;;;;;19.90;61.79;99224.19;5014728;28;42035;-84
2021/08/13 00:07:57;;;;;;;1.20;1.10;;;;;;;19.86;62.46;99210.16;5014284;28;41386;-85
2021/08/13 00:10:24;;;;;;;1.30;1.00;;;;;;;19.83;62.30;99212.28;5014803;28;39232;-84
2021/08/13 00:12:54;;;;;;;0.90;0.90;;;;;;;19.80;62.48;99226.00;5031210;28;41951;-82
2021/08/13 00:15:21;;;;;;;0.90;0.90;;;;;;;19.77;62.44;99229.00;5014149;28;44065;-83
2021/08/13 00:17:49;;;;;;;1.30;1.17;;;;;;;19.72;62.73;99232.97;5014597;28;41011;-82
2021/08/13 00:20:17;;;;;;;1.10;0.87;;;;;;;19.69;62.69;99227.03;5030648;28;40342;-82
2021/08/13 00:22:45;;;;;;;2.73;1.10;;;;;;;19.49;62.64;99215.47;5030392;28;40783;-82
2021/08/13 00:25:12;;;;;;;1.67;1.37;;;;;;;19.64;62.69;99246.28;5030222;28;41823;-83
2021/08/13 00:27:40;;;;;;;1.30;1.03;;;;;;;19.61;62.55;99246.56;5031147;28;43302;-82
2021/08/13 00:30:11;;;;;;;1.43;0.97;;;;;;;19.55;63.25;99247.13;5030210;28;39326;-84
2021/08/13 00:32:39;;;;;;;1.33;1.00;;;;;;;19.59;62.80;99253.94;5030236;28;41947;-84
2021/08/13 00:35:08;;;;;;;1.87;1.70;;;;;;;19.46;63.18;99242.59;5030279;28;42799;-84
2021/08/13 00:37:37;;;;;;;1.67;1.07;;;;;;;19.53;62.95;99257.19;5012660;28;42078;-86
2021/08/13 00:40:06;;;;;;;1.03;0.93;;;;;;;19.38;63.15;99239.78;5013886;28;39738;-83
2021/08/13 00:42:35;;;;;;;1.10;1.00;;;;;;;19.45;63.38;99262.38;5046879;28;41763;-83
2021/08/13 00:45:04;;;;;;;1.93;1.23;;;;;;;19.45;63.18;99267.75;5013522;28;41879;-83
2021/08/13 00:47:33;;;;;;;1.40;0.90;;;;;;;19.46;63.56;99269.47;5028634;28;42087;-82
2021/08/13 00:50:15;;;;;;;1.30;1.00;;;;;;;19.42;63.50;99267.19;5029874;28;39315;-82
2021/08/13 00:52:46;;;;;;;1.40;1.30;;;;;;;19.50;63.52;99284.34;5030205;28;41945;-84
2021/08/13 00:55:19;;;;;;;1.50;1.40;;;;;;;19.47;63.68;99286.41;5029865;28;42299;-85
2021/08/13 00:58:07;;;;;;;1.73;1.17;;;;;;;19.47;63.51;99287.28;5029710;28;42543;-84
2021/08/13 01:00:50;;;;;;;1.10;1.00;;;;;;;19.36;63.87;99279.34;5013021;28;38981;-84
2021/08/13 01:03:20;;;;;;;0.83;0.83;;;;;;;19.34;63.59;99278.66;5045916;28;42024;-85
2021/08/13 01:05:53;;;;;;;1.90;1.60;;;;;;;19.38;64.02;99285.44;5013071;28;41968;-83
2021/08/13 01:08:21;;;;;;;1.43;1.10;;;;;;;19.37;64.33;99283.75;5013870;28;41409;-82
2021/08/13 01:10:57;;;;;;;1.20;1.10;;;;;;;19.15;64.50;99243.75;5030126;28;38966;-83
2021/08/13 01:13:32;;;;;;;1.10;1.00;;;;;;;19.30;64.38;99266.47;5029858;28;40741;-83
2021/08/13 01:16:04;;;;;;;1.17;1.00;;;;;;;19.21;64.27;99270.00;5045682;28;45149;-83
2021/08/13 01:18:40;;;;;;;1.70;1.20;;;;;;;19.29;64.31;99288.94;5029078;28;42407;-84
2021/08/13 01:21:19;;;;;;;0.93;0.83;;;;;;;19.27;64.70;99281.06;5012625;28;39108;-85
2021/08/13 01:23:54;;;;;;;1.53;1.33;;;;;;;19.26;64.69;99278.50;5029412;28;41585;-82
2021/08/13 01:26:29;;;;;;;1.67;1.30;;;;;;;19.14;64.87;99263.53;5012749;28;42175;-85
2021/08/13 01:29:04;;;;;;;1.87;1.50;;;;;;;19.22;65.64;99261.81;5029416;28;42202;-85
2021/08/13 01:31:43;;;;;;;2.40;1.33;;;;;;;19.17;65.50;99264.06;5012721;28;39977;-85
2021/08/13 01:34:15;;;;;;;1.43;1.33;;;;;;;19.05;65.20;99254.44;5028802;28;41001;-84
2021/08/13 01:36:46;;;;;;;1.83;1.00;;;;;;;19.10;65.07;99262.09;5013118;28;41847;-82
2021/08/13 01:39:15;;;;;;;1.53;1.20;;;;;;;19.16;65.24;99266.91;5045503;28;42523;-83
2021/08/13 01:41:44;;;;;;;1.13;1.03;;;;;;;19.12;65.10;99270.88;5012778;28;39052;-82
2021/08/13 01:44:14;;;;;;;2.93;1.37;;;;;;;19.09;65.54;99271.97;5012446;28;41972;-84
2021/08/13 01:46:44;;;;;;;1.47;0.97;;;;;;;19.06;65.67;99268.72;5029064;28;42931;-82
2021/08/13 01:49:16;;;;;;;1.83;1.00;;;;;;;18.93;65.45;99256.41;5029655;28;43074;-85
2021/08/13 01:51:45;;;;;;;1.40;1.10;;;;;;;18.96;65.48;99272.25;5012560;28;39244;-83
2021/08/13 01:54:13;;;;;;;1.90;1.50;;;;;;;18.94;65.61;99271.53;5013011;28;40939;-86
2021/08/13 01:56:46;;;;;;;1.27;1.00;;;;;;;18.90;65.39;99272.81;5029008;28;43011;-82
2021/08/13 01:59:15;;;;;;;1.50;1.20;;;;;;;18.88;65.06;99263.19;5011685;28;41212;-85
2021/08/13 02:01:43;;;;;;;1.23;1.10;;;;;;;18.83;65.29;99255.56;5012864;28;38836;-83
2021/08/13 02:04:14;;;;;;;1.53;1.17;;;;;;;18.77;65.20;99250.75;5012465;28;41633;-85
2021/08/13 02:06:44;;;;;;;0.83;0.83;;;;;;;18.71;65.16;99250.44;5013059;28;42316;-84
2021/08/13 02:09:19;;;;;;;1.40;1.10;;;;;;;18.64;64.98;99259.06;5012951;28;41460;-84
2021/08/13 02:11:47;;;;;;;1.97;1.07;;;;;;;18.59;65.33;99247.03;5012893;28;38854;-86
2021/08/13 02:14:19;;;;;;;1.70;1.00;;;;;;;18.67;65.19;99263.25;5029012;28;40560;-85
2021/08/13 02:16:52;;;;;;;1.40;1.00;;;;;;;18.59;65.19;99257.75;5012302;28;41454;-84
2021/08/13 02:19:32;;;;;;;1.40;1.30;;;;;;;18.54;65.55;99243.88;5011608;28;42281;-82
2021/08/13 02:22:02;;;;;;;1.10;1.00;;;;;;;18.61;65.41;99259.31;5029331;28;41180;-83
2021/08/13 02:24:30;;;;;;;1.13;1.03;;;;;;;18.60;65.11;99264.81;5028783;28;41992;-84
2021/08/13 02:27:06;;;;;;;1.57;1.33;;;;;;;18.52;65.82;99254.75;5011857;28;41661;-83
2021/08/13 02:29:34;;;;;;;1.33;1.03;;;;;;;18.56;65.57;99271.41;5028836;28;42976;-83
2021/08/13 02:32:06;;;;;;;0.80;0.80;;;;;;;18.53;65.75;99258.28;5011539;28;40160;-84
2021/08/13 02:34:34;;;;;;;0.90;0.90;;;;;;;18.53;65.91;99255.59;5045046;28;41832;-82
2021/08/13 02:37:11;;;;;;;0.93;0.90;;;;;;;18.44;66.20;99256.38;5012253;28;41702;-83
2021/08/13 02:39:44;;;;;;;1.03;0.90;;;;;;;18.45;66.32;99266.13;5028479;28;42592;-83
2021/08/13 02:42:16;;;;;;;1.33;1.23;;;;;;;18.45;66.00;99271.50;5029709;28;40034;-85
2021/08/13 02:44:48;;;;;;;1.43;1.33;;;;;;;18.31;66.13;99254.78;5029063;28;41568;-83
2021/08/13 02:47:17;;;;;;;1.30;1.00;;;;;;;18.37;66.13;99279.38;5028181;28;43277;-83
2021/08/13 02:49:48;;;;;;;0.60;0.60;;;;;;;18.35;66.25;99273.28;5028083;28;42244;-82
2021/08/13 02:52:23;;;;;;;1.23;0.60;;;;;;;18.35;66.08;99270.63;5029398;28;41415;-83
2021/08/13 02:54:51;;;;;;;1.10;1.00;;;;;;;18.22;66.69;99244.88;5028409;28;42296;-82
2021/08/13 02:57:24;;;;;;;1.23;0.90;;;;;;;18.30;66.67;99257.59;5011771;28;41764;-82
2021/08/13 02:59:55;;;;;;;1.00;1.00;;;;;;;18.21;66.62;99255.75;5012022;28;41360;-84
2021/08/13 03:02:24;;;;;;;2.47;1.13;;;;;;;18.20;66.72;99257.56;5012325;28;39826;-82
2021/08/13 03:04:56;;;;;;;0.87;0.83;;;;;;;18.19;66.70;99263.06;5028335;28;41890;-82
2021/08/13 03:07:26;;;;;;;1.67;0.90;;;;;;;18.27;66.32;99285.56;5044399;28;43763;-83
2021/08/13 03:09:55;;;;;;;1.13;0.90;;;;;;;18.18;66.32;99270.25;5012110;28;42430;-82
2021/08/13 03:12:24;;;;;;;0.70;0.70;;;;;;;18.19;66.79;99269.28;5015608;28;39848;-83
2021/08/13 03:14:52;;;;;;;0.97;0.87;;;;;;;18.29;66.41;99283.59;5031465;28;41839;-85
2021/08/13 03:17:22;;;;;;;1.20;1.10;;;;;;;18.29;66.79;99280.91;5014734;28;43193;-82
2021/08/13 03:19:50;;;;;;;1.10;1.00;;;;;;;18.30;67.03;99269.19;5015182;28;41488;-84
2021/08/13 03:22:20;;;;;;;0.87;0.70;;;;;;;18.25;67.63;99254.50;5048895;28;41002;-83
2021/08/13 03:24:49;;;;;;;1.50;1.30;;;;;;;18.35;67.50;99262.56;5048570;28;41852;-83
2021/08/13 03:27:18;;;;;;;1.60;1.50;;;;;;;18.27;67.10;99247.16;5048153;28;43020;-84
2021/08/13 03:29:47;;;;;;;1.13;1.03;;;;;;;18.42;66.95;99263.75;5031390;28;42356;-84
2021/08/13 03:32:18;;;;;;;2.37;1.40;;;;;;;18.35;67.23;99249.16;5014715;28;38867;-83
2021/08/13 03:34:47;;;;;;;1.00;0.90;;;;;;;18.44;67.37;99269.78;5031833;28;41400;-82
2021/08/13 03:37:15;;;;;;;1.13;0.77;;;;;;;18.33;67.62;99259.16;5032512;28;42999;-82
2021/08/13 03:39:44;;;;;;;1.40;1.07;;;;;;;18.30;68.09;99247.72;5015681;28;41342;-83
2021/08/13 03:42:14;;;;;;;1.73;1.20;;;;;;;18.30;67.89;99247.72;5016493;28;38943;-84
2021/08/13 03:44:42;;;;;;;1.30;1.20;;;;;;;18.31;68.18;99243.22;5033043;28;42086;-84
2021/08/13 03:47:09;;;;;;;1.93;1.17;;;;;;;18.36;67.88;99250.88;5013453;28;43088;-84
2021/08/13 03:49:37;;;;;;;1.50;1.40;;;;;;;18.30;67.56;99252.25;5015069;28;42521;-82
2021/08/13 03:52:05;;;;;;;1.27;0.90;;;;;;;18.24;67.75;99247.44;5048100;28;40236;-84
2021/08/13 03:54:32;;;;;;;1.30;1.20;;;;;;;18.34;67.49;99258.19;5015639;28;40708;-84
2021/08/13 03:57:01;;;;;;;2.10;1.33;;;;;;;18.35;67.15;99265.25;5031372;28;42991;-83
2021/08/13 03:59:31;;;;;;;0.93;0.93;;;;;;;18.24;67.34;99247.44;5014162;28;42484;-85
2021/08/13 04:02:02;;;;;;;2.73;1.33;;;;;;;18.24;67.26;99242.91;5014519;28;41353;-83
2021/08/13 04:04:29;;;;;;;1.00;0.90;;;;;;;18.34;66.95;99247.47;5014530;28;40874;-84
2021/08/13 04:06:57;;;;;;;2.57;1.30;;;;;;;18.38;67.03;99255.13;5014574;28;42645;-85
2021/08/13 04:09:24;;;;;;;2.00;1.40;;;;;;;18.33;66.95;99251.13;5014710;28;41373;-84
2021/08/13 04:11:52;;;;;;;0.93;0.70;;;;;;;18.35;67.03;99244.66;5032987;28;40942;-84
2021/08/13 04:14:22;;;;;;;0.90;0.90;;;;;;;18.44;67.04;99251.88;5030903;28;40598;-84
2021/08/13 04:16:51;;;;;;;1.20;1.00;;;;;;;18.53;67.34;99263.63;5031065;28;43167;-82
2021/08/13 04:19:19;;;;;;;1.40;1.30;;;;;;;18.51;67.56;99269.13;5014454;28;42093;-83
2021/08/13 04:21:54;;;;;;;1.53;1.30;;;;;;;18.52;67.21;99272.66;5030885;28;40527;-85
2021/08/13 04:24:21;;;;;;;2.10;1.40;;;;;;;18.49;67.60;99262.22;5013599;28;40829;-82
2021/08/13 04:26:49;;;;;;;1.17;1.07;;;;;;;18.52;67.48;99267.31;5014504;28;41832;-82
2021/08/13 04:29:16;;;;;;;1.23;1.07;;;;;;;18.52;67.47;99253.91;5014504;28;42631;-82
2021/08/13 04:31:44;;;;;;;1.90;1.30;;;;;;;18.53;67.97;99239.50;5030536;28;38892;-84
2021/08/13 04:34:14;;;;;;;1.40;1.30;;;;;;;18.69;67.75;99263.97;5014129;28;40499;-83
2021/08/13 04:36:41;;;;;;;1.07;0.97;;;;;;;18.69;67.30;99255.94;5031741;28;43784;-84
2021/08/13 04:39:10;;;;;;;1.40;1.30;;;;;;;18.80;67.17;99277.28;5013345;28;41473;-85
2021/08/13 04:41:39;;;;;;;1.33;0.90;;;;;;;18.88;66.88;99288.19;5013256;28;40287;-84
2021/08/13 04:44:08;;;;;;;1.90;1.13;;;;;;;18.91;66.95;99287.94;5013619;28;41967;-83
2021/08/13 04:46:36;;;;;;;2.20;1.37;;;;;;;18.96;66.92;99299.09;5030277;28;43128;-85
2021/08/13 04:49:04;;;;;;;1.13;1.13;;;;;;;18.88;67.89;99296.25;5012590;28;41322;-83
2021/08/13 04:51:33;;;;;;;1.57;1.20;;;;;;;18.99;67.97;99320.28;5030917;28;39841;-85
2021/08/13 04:54:01;;;;;;;2.93;1.03;;;;;;;18.97;67.79;99318.72;5013694;28;41703;-84
2021/08/13 04:56:29;;;;;;;1.60;1.30;;;;;;;19.12;67.73;99335.28;5013450;28;42692;-85
2021/08/13 04:58:57;;;;;;;1.77;1.57;;;;;;;19.14;67.52;99330.66;5030190;28;42540;-82
2021/08/13 05:01:42;;;;;;;1.63;1.47;;;;;;;19.17;67.69;99333.88;5030686;28;38822;-82
2021/08/13 05:04:11;;;;;;;5.33;1.67;;;;;;;19.31;67.53;99375.59;5029671;28;42667;-83
2021/08/13 05:06:40;;;;;;;1.40;1.20;;;;;;;19.24;70.05;99339.56;5030281;28;41860;-85
2021/08/13 05:09:08;;;;;;;2.90;1.97;;;;;;;19.34;70.71;99335.91;5046164;28;43337;-84
2021/08/13 05:11:36;;;;;;;3.80;1.80;;;;;;;19.40;71.00;99330.97;5013437;28;40129;-82
2021/08/13 05:14:04;;;;;;;1.30;1.27;;;;;;;19.47;70.40;99346.38;5012640;28;41634;-82
2021/08/13 05:16:32;;;;;;;1.60;1.50;;;;;;;19.47;70.17;99334.78;5029768;28;43605;-83
2021/08/13 05:18:59;;;;;;;1.87;1.77;;;;;;;19.64;69.91;99359.16;5012842;28;41699;-84
2021/08/13 05:21:27;;;;;;;2.67;1.97;;;;;;;19.65;69.54;99350.09;5030225;28;40240;-84
2021/08/13 05:23:56;;;;;;;1.87;1.30;;;;;;;19.71;69.62;99346.84;5029775;28;40919;-83
2021/08/13 05:26:25;;;;;;;1.60;1.50;;;;;;;19.90;69.37;99358.59;5029472;28;42749;-84
2021/08/13 05:28:52;;;;;;;1.60;1.30;;;;;;;19.91;68.83;99354.88;5012986;28;41738;-85
2021/08/13 05:31:23;;;;;;;1.57;1.47;;;;;;;19.99;69.33;99390.84;5029905;28;40194;-84
2021/08/13 05:33:51;;;;;;;2.50;1.30;;;;;;;20.05;69.46;99413.59;5028807;28;41547;-86
2021/08/13 05:36:19;;;;;;;1.90;1.70;;;;;;;20.10;69.28;99408.66;5029510;28;44482;-85
2021/08/13 05:38:46;;;;;;;2.90;1.90;;;;;;;20.15;69.88;99398.31;5012328;28;41312;-85
2021/08/13 05:41:15;;;;;;;1.27;1.17;;;;;;;20.05;69.67;99362.50;5029521;28;40980;-83
2021/08/13 05:43:46;;;;;;;2.00;1.43;;;;;;;20.14;69.48;99360.81;5012449;28;41232;-85
2021/08/13 05:46:15;;;;;;;1.77;1.67;;;;;;;20.17;69.18;99374.81;5013078;28;41486;-84
2021/08/13 05:48:43;;;;;;;2.97;1.17;;;;;;;20.32;69.20;99394.88;5012334;28;41312;-83
2021/08/13 05:51:11;;;;;;;3.77;1.77;;;;;;;20.40;69.14;99394.19;5012513;28;40546;-84
2021/08/13 05:53:38;;;;;;;1.50;1.40;;;;;;;20.39;69.35;99379.06;5012411;28;40987;-84
2021/08/13 05:56:07;;;;;;;2.13;1.70;;;;;;;20.34;70.06;99360.63;5029874;28;43047;-84
2021/08/13 05:58:37;;;;;;;2.50;1.77;;;;;;;20.20;72.36;99334.19;5012084;28;42058;-83
2021/08/13 06:01:05;;;;;;;1.80;1.60;;;;;;;19.84;76.62;99295.47;5012661;28;39849;-85
2021/08/13 06:03:34;;;;;;;2.80;1.87;;;;;;;19.68;77.06;99300.56;5012333;28;40618;-81
2021/08/13 06:06:02;;;;;;;2.07;1.87;;;;;;;19.56;77.86;99302.56;5012355;28;42191;-83
2021/08/13 06:08:29;;;;;;;1.83;1.33;;;;;;;19.49;77.74;99295.22;5012758;28;41235;-88
2021/08/13 06:10:57;;;;;;;1.40;1.30;;;;;;;19.41;77.22;99276.25;5012559;28;38847;-85
2021/08/13 06:13:25;;;;;;;1.33;1.23;;;;;;;19.47;77.11;99284.59;5012686;28;41896;-83
2021/08/13 06:15:56;;;;;;;1.43;1.30;;;;;;;19.58;77.24;99300.59;5029117;28;43920;-84
2021/08/13 06:18:24;;;;;;;1.67;1.10;;;;;;;19.62;76.41;99298.47;5013013;28;41509;-83
2021/08/13 06:20:51;;;;;;;1.83;1.57;;;;;;;19.80;76.30;99310.19;5012029;28;39021;-85
2021/08/13 06:23:24;;;;;;;1.87;1.50;;;;;;;19.89;76.44;99306.66;5011750;28;42291;-84
2021/08/13 06:25:53;;;;;;;1.93;1.40;;;;;;;20.10;75.63;99311.84;5045441;28;43124;-86
2021/08/13 06:28:21;;;;;;;1.30;1.20;;;;;;;20.22;75.61;99309.84;5045318;28;41766;-87
2021/08/13 06:30:50;;;;;;;2.07;1.60;;;;;;;20.27;75.45;99297.66;5011732;28;39650;-81
2021/08/13 06:33:20;;;;;;;1.67;1.57;;;;;;;20.52;76.06;99319.56;5028233;28;40607;-86
2021/08/13 06:35:48;;;;;;;2.80;1.20;;;;;;;20.56;75.42;99320.94;5028118;28;43187;-83
2021/08/13 06:38:18;;;;;;;1.20;1.10;;;;;;;20.68;75.14;99325.13;5028953;28;41917;-87
2021/08/13 06:40:46;;;;;;;1.67;1.33;;;;;;;20.64;75.17;99291.44;5012026;28;39231;-88
2021/08/13 06:43:19;;;;;;;1.90;1.53;;;;;;;20.88;74.96;99324.06;5029102;28;42066;-83
2021/08/13 06:45:55;;;;;;;2.07;1.73;;;;;;;21.36;74.23;99333.72;5044361;28;45600;-85
2021/08/13 06:48:32;;;;;;;2.10;1.90;;;;;;;21.37;73.82;99330.03;5011161;28;42654;-85
2021/08/13 06:51:00;;;;;;;2.87;1.63;;;;;;;21.15;74.46;99315.94;5027934;28;38927;-89
2021/08/13 06:53:31;;;;;;;1.70;1.47;;;;;;;21.09;74.37;99313.88;5010816;28;41499;-89
2021/08/13 06:55:59;;;;;;;1.30;1.20;;;;;;;21.50;74.51;99343.97;5029242;28;42948;-86
2021/08/13 06:58:27;;;;;;;2.63;1.73;;;;;;;21.68;74.24;99317.84;5028782;28;41396;-87
2021/08/13 07:01:02;;;;;;;2.10;1.90;;;;;;;21.97;75.56;99327.53;5028206;28;39308;-84
2021/08/13 07:03:30;;;;;;;3.30;2.33;;;;;;;22.04;74.69;99309.72;5027845;28;42922;-85
2021/08/13 07:06:01;;;;;;;1.87;1.40;;;;;;;22.68;73.01;99341.69;5044799;28;42830;-86
2021/08/13 07:08:29;;;;;;;2.03;1.60;;;;;;;23.07;71.58;99352.84;5027737;28;42222;-86
2021/08/13 07:11:03;;;;;;;2.40;1.93;;;;;;;23.40;70.53;99331.31;5011253;28;39175;-82
2021/08/13 07:13:32;;;;;;;2.20;1.77;;;;;;;23.51;68.98;99320.22;5011636;28;40880;-83
2021/08/13 07:16:00;;;;;;;1.53;1.43;;;;;;;23.69;69.03;99341.72;5027496;28;42792;-83
2021/08/13 07:18:28;;;;;;;1.20;1.10;;;;;;;23.75;68.80;99350.00;5010814;28;41626;-82
2021/08/13 07:20:58;;;;;;;2.03;1.77;;;;;;;23.77;68.47;99336.31;5010985;28;41313;-82
2021/08/13 07:23:27;;;;;;;2.23;1.63;;;;;;;24.13;69.07;99348.47;5011220;28;40792;-89
2021/08/13 07:25:55;;;;;;;2.00;1.80;;;;;;;24.55;68.05;99353.69;5044123;28;43824;-84
2021/08/13 07:28:22;;;;;;;1.83;1.60;;;;;;;24.93;66.58;99356.66;5028023;28;41440;-83
2021/08/13 07:30:50;;;;;;;2.03;1.60;;;;;;;25.31;65.83;99354.97;5044583;28;40928;-86
2021/08/13 07:33:20;;;;;;;1.70;1.60;;;;;;;25.61;64.34;99345.13;5027145;28;42039;-87
2021/08/13 07:35:48;;;;;;;1.77;1.67;;;;;;;25.91;63.96;99340.69;5011416;28;42752;-82
2021/08/13 07:38:16;;;;;;;1.70;1.40;;;;;;;25.95;64.64;99342.88;5044222;28;42326;-84
2021/08/13 07:40:45;;;;;;;2.10;1.90;;;;;;;25.86;64.43;99330.38;5027827;28;40169;-83
2021/08/13 07:43:15;;;;;;;2.17;1.90;;;;;;;25.88;64.13;99333.75;5010085;28;41029;-82
2021/08/13 07:45:43;;;;;;;2.20;1.40;;;;;;;25.99;64.37;99344.16;5026848;28;42101;-83
2021/08/13 07:48:11;;;;;;;1.73;1.57;;;;;;;26.11;64.74;99339.16;5009648;28;42669;-82
2021/08/13 07:50:39;;;;;;;1.67;1.50;;;;;;;26.15;64.71;99336.91;5010624;28;38873;-83
2021/08/13 07:53:07;;;;;;;2.00;1.70;;;;;;;26.39;64.24;99347.56;5011244;28;40952;-85
2021/08/13 07:55:35;;;;;;;1.90;1.70;;;;;;;26.69;64.03;99346.59;5027068;28;43142;-84
2021/08/13 07:58:05;;;;;;;1.90;1.50;;;;;;;26.96;63.17;99341.53;5029651;28;42952;-84
2021/08/13 08:00:32;;;;;;;2.60;2.20;;;;;;;27.18;62.21;99356.91;5047290;28;40185;-81
2021/08/13 08:03:01;;;;;;;1.77;1.60;;;;;;;27.38;61.91;99347.09;5030409;28;42115;-84
2021/08/13 08:05:29;;;;;;;1.73;1.43;;;;;;;27.89;60.88;99352.47;5030885;28;41691;-81
2021/08/13 08:07:57;;;;;;;1.93;1.80;;;;;;;28.48;58.53;99361.19;5031581;28;42427;-82
2021/08/13 08:10:24;;;;;;;2.00;1.60;;;;;;;28.84;58.45;99339.22;5031323;28;39812;-84
2021/08/13 08:12:52;;;;;;;1.90;1.40;;;;;;;29.05;59.85;99351.09;5030661;28;40769;-83
2021/08/13 08:15:21;;;;;;;1.93;1.73;;;;;;;29.09;57.93;99346.88;5030178;28;41543;-82
2021/08/13 08:17:48;;;;;;;2.20;1.67;;;;;;;29.42;58.18;99364.28;5031563;28;42295;-85
2021/08/13 08:20:16;;;;;;;2.03;1.83;;;;;;;29.56;56.71;99367.88;5029451;28;39864;-83
2021/08/13 08:22:44;;;;;;;2.10;1.90;;;;;;;29.73;56.31;99376.53;5030770;28;41863;-83
2021/08/13 08:25:11;;;;;;;2.13;1.90;;;;;;;30.02;55.23;99384.41;5029849;28;41738;-82
2021/08/13 08:27:45;;;;;;;2.10;1.80;;;;;;;30.19;54.18;99380.22;5031177;28;43064;-84
2021/08/13 08:30:14;;;;;;;2.23;1.73;;;;;;;30.36;54.02;99395.16;5031573;28;39916;-82
2021/08/13 08:32:43;;;;;;;3.03;1.93;;;;;;;30.48;53.60;99389.06;5030263;28;42689;-81
2021/08/13 08:35:11;;;;;;;1.80;1.70;;;;;;;30.57;52.83;99374.13;5029471;28;42239;-81
2021/08/13 08:37:51;;;;;;;2.40;2.20;;;;;;;31.01;52.43;99390.69;5029270;28;42344;-83
2021/08/13 08:40:24;;;;;;;1.87;1.77;;;;;;;31.58;50.02;99413.66;5030441;28;39127;-81
2021/08/13 08:42:57;;;;;;;2.60;2.40;;;;;;;32.35;48.49;99412.63;5031297;28;41260;-83
2021/08/13 08:45:26;;;;;;;2.23;2.03;;;;;;;33.40;46.18;99423.66;5029850;28;42098;-84
2021/08/13 08:47:57;;;;;;;1.83;1.73;;;;;;;34.30;43.96;99419.09;5028908;28;41795;-82
2021/08/13 08:50:26;;;;;;;2.47;2.00;;;;;;;35.31;42.91;99419.88;5029931;28;38877;-82
2021/08/13 08:52:54;;;;;;;2.10;1.87;;;;;;;35.91;42.77;99440.44;5029070;28;41993;-85
2021/08/13 08:55:22;;;;;;;2.60;2.17;;;;;;;35.65;41.45;99433.56;5030618;28;43255;-83
2021/08/13 08:57:51;;;;;;;2.27;2.07;;;;;;;35.22;41.97;99431.25;5029522;28;42476;-84
2021/08/13 09:00:25;;;;;;;2.17;1.97;;;;;;;34.92;42.09;99441.56;5029911;28;41076;-81
2021/08/13 09:02:57;;;;;;;3.13;2.03;;;;;;;34.74;42.91;99428.72;5030171;28;40954;-82
2021/08/13 09:05:24;;;;;;;2.40;1.90;;;;;;;34.66;43.12;99419.97;5030591;28;42609;-86
2021/08/13 09:07:52;;;;;;;2.27;2.07;;;;;;;34.42;41.29;99392.44;5029023;28;42509;-84
2021/08/13 09:10:19;;;;;;;2.30;2.00;;;;;;;34.72;41.89;99408.03;5029568;28;39319;-84
2021/08/13 09:12:47;;;;;;;2.40;1.93;;;;;;;34.78;39.75;99451.13;5031260;28;42036;-86
2021/08/13 09:15:29;;;;;;;1.97;1.77;;;;;;;35.05;40.45;99438.56;5030790;28;42678;-85
2021/08/13 09:18:17;;;;;;;2.13;1.90;;;;;;;36.11;39.35;99450.19;5029540;28;41207;-86
2021/08/13 09:20:47;;;;;;;2.33;2.17;;;;;;;37.16;36.66;99466.94;5029305;28;38808;-88
2021/08/13 09:23:37;;;;;;;2.22;2.03;;;;;;;37.63;36.38;99441.63;5030316;28;41304;-87
2021/08/13 09:26:07;;;;;;;2.10;1.90;;;;;;;37.57;36.95;99448.19;5029147;28;43131;-84
2021/08/13 09:28:55;;;;;;;2.08;1.88;;;;;;;38.10;35.83;99464.03;5030329;28;42614;-83
2021/08/13 09:31:38;;;;;;;2.60;2.10;;;;;;;39.18;33.96;99473.06;5029206;28;39108;-87
2021/08/13 09:34:10;;;;;;;3.03;2.03;;;;;;;39.13;32.86;99478.56;5029260;28;41876;-86
2021/08/13 09:36:39;;;;;;;2.00;1.80;;;;;;;38.24;35.13;99458.94;5012828;28;41964;-88
2021/08/13 09:39:09;;;;;;;2.20;2.10;;;;;;;37.48;35.80;99471.81;5012867;28;41551;-83
2021/08/13 09:41:47;;;;;;;3.40;2.27;;;;;;;36.54;37.97;99455.97;5028505;28;39050;-85
2021/08/13 09:44:24;;;;;;;2.17;1.97;;;;;;;36.14;38.29;99469.00;5045928;28;42087;-85
2021/08/13 09:46:58;;;;;;;2.03;1.80;;;;;;;35.70;39.09;99460.41;5012035;28;42584;-89
2021/08/13 09:49:29;;;;;;;2.13;1.93;;;;;;;35.31;40.33;99441.91;5029008;28;41365;-87
2021/08/13 09:52:11;;;;;;;2.40;1.93;;;;;;;34.97;41.43;99419.66;5029040;28;39783;-83
2021/08/13 09:54:39;;;;;;;2.37;2.17;;;;;;;34.86;40.80;99420.50;5029854;28;41965;-85
2021/08/13 09:57:08;;;;;;;2.13;1.93;;;;;;;35.09;40.56;99426.00;5012299;28;43083;-85
2021/08/13 09:59:37;;;;;;;1.80;1.70;;;;;;;35.56;39.60;99403.88;5012875;28;41142;-83
2021/08/13 10:02:12;;;;;;;2.73;2.27;;;;;;;36.47;38.63;99447.03;5029753;28;41023;-84
2021/08/13 10:04:43;;;;;;;2.33;1.67;;;;;;;36.86;39.08;99447.13;5012841;28;41940;-89
2021/08/13 10:07:17;;;;;;;2.37;1.97;;;;;;;36.59;38.63;99458.00;5028905;28;42555;-84
2021/08/13 10:09:45;;;;;;;3.03;1.97;;;;;;;36.01;39.79;99434.28;5045158;28;43242;-84
2021/08/13 10:12:12;;;;;;;1.63;1.53;;;;;;;35.77;40.08;99440.97;5028836;28;39096;-82
2021/08/13 10:14:43;;;;;;;2.40;2.07;;;;;;;36.08;38.71;99456.22;5012748;28;40681;-84
2021/08/13 10:17:17;;;;;;;2.33;2.03;;;;;;;36.66;38.01;99448.44;5011340;28;43265;-86
2021/08/13 10:19:52;;;;;;;1.93;1.73;;;;;;;36.90;37.37;99440.00;5045146;28;42403;-83
2021/08/13 10:22:21;;;;;;;2.27;2.03;;;;;;;36.98;38.02;99428.53;5011920;28;39087;-85
2021/08/13 10:24:51;;;;;;;2.17;1.97;;;;;;;36.93;39.04;99423.78;5012599;28;40977;-86
2021/08/13 10:27:20;;;;;;;2.30;1.77;;;;;;;36.92;39.05;99410.22;5011080;28;43104;-89
2021/08/13 10:29:54;;;;;;;2.83;2.50;;;;;;;37.01;37.05;99439.06;5011775;28;41347;-87
2021/08/13 10:32:26;;;;;;;2.57;2.37;;;;;;;37.18;36.27;99434.38;5012164;28;39332;-88
2021/08/13 10:34:57;;;;;;;2.40;2.20;;;;;;;37.16;36.88;99417.22;5028581;28;41725;-86
2021/08/13 10:37:27;;;;;;;2.57;2.10;;;;;;;37.25;36.15;99446.09;5028134;28;42144;-86
2021/08/13 10:39:56;;;;;;;2.07;1.87;;;;;;;37.48;36.07;99449.69;5028469;28;42388;-86
2021/08/13 10:42:27;;;;;;;2.87;2.50;;;;;;;37.86;35.35;99446.03;5011446;28;41386;-85
2021/08/13 10:45:01;;;;;;;2.70;2.03;;;;;;;37.84;35.13;99460.13;5011978;28;41977;-88
2021/08/13 10:47:34;;;;;;;2.07;1.97;;;;;;;37.86;35.92;99449.66;5010987;28;41713;-84
2021/08/13 10:50:08;;;;;;;2.47;2.27;;;;;;;37.98;36.25;99453.09;5027956;28;41584;-85
2021/08/13 10:52:38;;;;;;;2.40;2.20;;;;;;;38.06;34.89;99462.88;5011866;28;39002;-88
2021/08/13 10:55:46;;;;;;;2.60;2.40;;;;;;;38.64;33.48;99464.88;5028911;28;40681;-85
2021/08/13 10:58:45;;;;;;;2.23;2.03;;;;;;;39.55;33.46;99450.00;5011632;28;41920;-86
2021/08/13 11:01:21;;;;;;;2.88;2.38;;;;;;;40.05;33.53;99447.44;5011630;28;42534;-86
2021/08/13 11:04:12;;;;;;;3.08;2.22;;;;;;;40.06;31.41;99454.63;5011301;28;38868;-84
2021/08/13 11:06:47;;;;;;;2.40;2.20;;;;;;;39.72;32.48;99447.84;5011890;28;42034;-89
2021/08/13 11:09:33;;;;;;;2.00;1.80;;;;;;;39.69;33.46;99443.66;5011338;28;41886;-91
2021/08/13 11:12:13;;;;;;;2.58;2.38;;;;;;;39.55;33.73;99441.69;5028152;28;42516;-84
2021/08/13 11:14:49;;;;;;;2.45;2.20;;;;;;;39.91;33.75;99451.00;5011978;28;39133;-88
2021/08/13 11:17:42;;;;;;;3.83;2.30;;;;;;;40.19;33.20;99440.22;5010685;28;41086;-86
2021/08/13 11:20:12;;;;;;;2.35;2.15;;;;;;;40.50;32.49;99443.06;5011104;28;43416;-87
2021/08/13 11:23:02;;;;;;;2.75;2.40;;;;;;;41.55;29.89;99448.78;5028147;28;42010;-89
2021/08/13 11:25:45;;;;;;;2.38;2.03;;;;;;;42.43;28.92;99448.06;5010014;28;39394;-84
2021/08/13 11:28:19;;;;;;;2.38;2.17;;;;;;;43.58;27.60;99458.41;5010838;28;41179;-86
2021/08/13 11:30:51;;;;;;;2.85;2.55;;;;;;;44.00;26.43;99460.41;5011220;28;42257;-89
2021/08/13 11:33:39;;;;;;;2.33;2.13;;;;;;;43.91;28.05;99451.00;5014988;28;41428;-88
2021/08/13 11:36:09;;;;;;;2.55;2.05;;;;;;;43.76;27.09;99437.28;5015389;28;40131;-90
2021/08/13 11:39:00;;;;;;;2.13;1.88;;;;;;;42.97;28.50;99459.03;5047819;28;41984;-89
2021/08/13 11:41:29;;;;;;;2.42;2.22;;;;;;;42.08;27.81;99443.56;5031140;28;43340;-89
2021/08/13 11:44:04;;;;;;;2.28;2.08;;;;;;;41.39;28.15;99456.34;5015113;28;42749;-88
2021/08/13 11:46:36;;;;;;;2.58;2.30;;;;;;;40.76;28.89;99458.66;5015454;28;38958;-88
2021/08/13 11:49:09;;;;;;;2.00;1.83;;;;;;;40.21;29.39;99449.13;5023101;28;41101;-87
2021/08/13 11:51:38;;;;;;;2.60;2.40;;;;;;;40.11;30.68;99432.47;5025520;28;41451;-86